createdAt,value
2022-09-30T00:01:34.139Z,96894.12
2022-09-30T00:04:02.002Z,96887.28
2022-09-30T00:06:29.977Z,96889.30
2022-09-30T00:08:57.658Z,96890.44
2022-09-30T00:11:28.291Z,96881.34
2022-09-30T00:13:57.158Z,96889.77
2022-09-30T00:16:26.581Z,96894.37
2022-09-30T00:18:56.734Z,96893.59
2022-09-30T00:21:24.612Z,96901.66
2022-09-30T00:23:52.200Z,96896.03
2022-09-30T00:26:21.617Z,96893.70
2022-09-30T00:28:54.245Z,96893.23
2022-09-30T00:31:23.108Z,96885.30
2022-09-30T00:34:11.017Z,96887.18
2022-09-30T00:36:47.400Z,96886.97
2022-09-30T00:39:18.119Z,96893.80
2022-09-30T00:41:47.847Z,96897.62
2022-09-30T00:44:44.996Z,96891.45
2022-09-30T00:47:32.636Z,96890.22
2022-09-30T00:50:06.601Z,96892.91
2022-09-30T00:52:34.708Z,96898.29
2022-09-30T00:55:04.463Z,96897.86
2022-09-30T00:57:31.879Z,96897.40
2022-09-30T01:00:00.172Z,96897.75
2022-09-30T01:02:27.837Z,96901.11
2022-09-30T01:04:56.997Z,96898.31
2022-09-30T01:07:24.841Z,96900.89
2022-09-30T01:09:52.175Z,96901.77
2022-09-30T01:12:22.381Z,96904.03
2022-09-30T01:14:52.877Z,96909.16
2022-09-30T01:17:54.136Z,96906.14
2022-09-30T01:20:37.417Z,96898.72
2022-09-30T01:23:31.419Z,96900.97
2022-09-30T01:26:08.589Z,96909.14
2022-09-30T01:29:02.413Z,96914.05
2022-09-30T01:31:49.475Z,96913.62
2022-09-30T01:34:20.553Z,96914.04
2022-09-30T01:37:00.517Z,96913.14
2022-09-30T01:39:40.176Z,96911.36
2022-09-30T01:42:17.137Z,96906.30
2022-09-30T01:44:58.519Z,96900.25
2022-09-30T01:47:41.485Z,96893.66
2022-09-30T01:50:21.389Z,96888.59
2022-09-30T01:53:14.719Z,96894.64
2022-09-30T01:56:04.083Z,96899.80
2022-09-30T01:58:43.333Z,96917.27
2022-09-30T02:01:17.021Z,96922.73
2022-09-30T02:03:51.844Z,96925.21
2022-09-30T02:06:22.927Z,96923.97
2022-09-30T02:09:14.586Z,96914.91
2022-09-30T02:11:42.371Z,96902.34
2022-09-30T02:14:19.119Z,96900.56
2022-09-30T02:17:00.692Z,96896.75
2022-09-30T02:19:31.677Z,96899.44
2022-09-30T02:22:03.090Z,96894.06
2022-09-30T02:24:35.388Z,96898.00
2022-09-30T02:27:05.869Z,96894.75
2022-09-30T02:29:36.321Z,96897.88
2022-09-30T02:32:13.193Z,96901.58
2022-09-30T02:34:44.680Z,96904.27
2022-09-30T02:37:15.392Z,96900.24
2022-09-30T02:39:55.105Z,96901.48
2022-09-30T02:42:26.989Z,96904.61
2022-09-30T02:44:57.940Z,96907.20
2022-09-30T02:47:45.657Z,96903.73
2022-09-30T02:50:28.888Z,96899.91
2022-09-30T02:53:05.709Z,96899.03
2022-09-30T02:55:55.465Z,96893.53
2022-09-30T02:58:25.612Z,96897.24
2022-09-30T03:00:54.371Z,96890.64
2022-09-30T03:03:25.283Z,96884.91
2022-09-30T03:05:52.731Z,96880.31
2022-09-30T03:08:20.232Z,96877.41
2022-09-30T03:10:50.322Z,96879.54
2022-09-30T03:13:39.357Z,96876.84
2022-09-30T03:16:27.488Z,96882.02
2022-09-30T03:19:18.296Z,96892.30
2022-09-30T03:22:19.793Z,96885.36
2022-09-30T03:25:02.715Z,96902.62
2022-09-30T03:27:33.728Z,96901.84
2022-09-30T03:30:17.882Z,96904.63
2022-09-30T03:33:02.054Z,96909.66
2022-09-30T03:35:46.421Z,96902.50
2022-09-30T03:38:43.242Z,96905.97
2022-09-30T03:41:28.822Z,96903.84
2022-09-30T03:44:06.351Z,96906.44
2022-09-30T03:46:43.327Z,96899.72
2022-09-30T03:49:14.783Z,96904.75
2022-09-30T03:51:42.489Z,96901.84
2022-09-30T03:54:11.770Z,96903.96
2022-09-30T03:56:41.438Z,96906.09
2022-09-30T03:59:27.497Z,96912.24
2022-09-30T04:01:57.012Z,96924.13
2022-09-30T04:04:27.159Z,96922.00
2022-09-30T04:06:54.242Z,96930.06
2022-09-30T04:09:22.755Z,96927.38
2022-09-30T04:11:50.702Z,96928.16
2022-09-30T04:14:18.300Z,96930.06
2022-09-30T04:16:48.677Z,96927.38
2022-09-30T04:19:15.768Z,96928.16
2022-09-30T04:21:43.172Z,96927.13
2022-09-30T04:24:10.629Z,96934.66
2022-09-30T04:26:37.857Z,96938.69
2022-09-30T04:29:05.373Z,96940.81
2022-09-30T04:31:32.775Z,96940.81
2022-09-30T04:34:00.203Z,96936.66
2022-09-30T04:36:27.770Z,96933.86
2022-09-30T04:38:55.122Z,96936.23
2022-09-30T04:41:22.338Z,96935.55
2022-09-30T04:43:49.632Z,96931.98
2022-09-30T04:46:19.562Z,96939.38
2022-09-30T04:48:47.653Z,96934.58
2022-09-30T04:51:20.213Z,96936.04
2022-09-30T04:53:48.565Z,96941.78
2022-09-30T04:56:18.949Z,96940.11
2022-09-30T04:58:46.789Z,96938.32
2022-09-30T05:01:17.790Z,96942.12
2022-09-30T05:03:46.681Z,96946.38
2022-09-30T05:06:14.256Z,96954.33
2022-09-30T05:08:45.685Z,96945.84
2022-09-30T05:11:20.182Z,96941.89
2022-09-30T05:13:47.808Z,96947.13
2022-09-30T05:16:16.251Z,96961.04
2022-09-30T05:18:46.542Z,96962.70
2022-09-30T05:21:16.465Z,96969.35
2022-09-30T05:23:44.335Z,96976.08
2022-09-30T05:26:12.754Z,96980.98
2022-09-30T05:28:41.621Z,96988.77
2022-09-30T05:31:09.366Z,96989.39
2022-09-30T05:33:36.947Z,96999.05
2022-09-30T05:36:06.671Z,97004.80
2022-09-30T05:38:34.572Z,96998.73
2022-09-30T05:41:10.719Z,96996.02
2022-09-30T05:43:39.643Z,96998.84
2022-09-30T05:46:07.266Z,97002.48
2022-09-30T05:48:34.554Z,97012.31
2022-09-30T05:51:01.855Z,97013.02
2022-09-30T05:53:31.525Z,97016.41
2022-09-30T05:55:58.939Z,97018.09
2022-09-30T05:58:27.044Z,97022.42
2022-09-30T06:00:54.415Z,97027.14
2022-09-30T06:03:21.800Z,97037.49
2022-09-30T06:05:57.432Z,97034.20
2022-09-30T06:08:24.686Z,97035.77
2022-09-30T06:10:52.163Z,97038.48
2022-09-30T06:13:20.803Z,97044.14
2022-09-30T06:15:59.466Z,97042.75
2022-09-30T06:18:27.653Z,97053.44
2022-09-30T06:21:03.026Z,97043.08
2022-09-30T06:23:31.505Z,97044.67
2022-09-30T06:25:59.471Z,97042.02
2022-09-30T06:28:26.712Z,97039.44
2022-09-30T06:30:54.252Z,97046.16
2022-09-30T06:33:21.804Z,97046.09
2022-09-30T06:35:50.587Z,97041.77
2022-09-30T06:38:18.059Z,97045.13
2022-09-30T06:40:49.629Z,97040.53
2022-09-30T06:43:19.209Z,97042.95
2022-09-30T06:45:48.078Z,97037.81
2022-09-30T06:48:18.589Z,97048.73
2022-09-30T06:50:57.211Z,97047.34
2022-09-30T06:53:15.372Z,97044.30
2022-09-30T06:55:42.807Z,97037.13
2022-09-30T06:58:15.180Z,97046.84
2022-09-30T07:00:42.911Z,97043.86
2022-09-30T07:03:15.409Z,97038.95
2022-09-30T07:05:42.643Z,97035.87
2022-09-30T07:08:10.121Z,97044.71
2022-09-30T07:10:37.713Z,97040.95
2022-09-30T07:13:06.292Z,97042.77
2022-09-30T07:15:33.532Z,97043.03
2022-09-30T07:18:01.245Z,97045.25
2022-09-30T07:20:29.665Z,97046.53
2022-09-30T07:22:58.239Z,97047.62
2022-09-30T07:25:25.772Z,97051.55
2022-09-30T07:27:54.633Z,97050.08
2022-09-30T07:30:27.015Z,97054.75
2022-09-30T07:32:51.208Z,97058.64
2022-09-30T07:35:18.764Z,97056.59
2022-09-30T07:37:46.032Z,97070.38
2022-09-30T07:40:14.630Z,97069.41
2022-09-30T07:42:43.780Z,97068.70
2022-09-30T07:45:13.214Z,97065.97
2022-09-30T07:47:40.521Z,97068.05
2022-09-30T07:50:09.711Z,97066.25
2022-09-30T07:52:36.875Z,97076.00
2022-09-30T07:55:04.749Z,97072.18
2022-09-30T07:57:32.003Z,97079.69
2022-09-30T08:00:07.962Z,97084.28
2022-09-30T08:02:28.523Z,97082.94
2022-09-30T08:04:55.673Z,97089.22
2022-09-30T08:07:22.658Z,97099.38
2022-09-30T08:09:50.048Z,97104.02
2022-09-30T08:12:17.317Z,97103.85
2022-09-30T08:14:44.853Z,97103.85
2022-09-30T08:17:12.269Z,97106.73
2022-09-30T08:19:41.205Z,97101.76
2022-09-30T08:22:10.126Z,97095.94
2022-09-30T08:24:37.740Z,97109.88
2022-09-30T08:27:05.318Z,97114.19
2022-09-30T08:32:01.877Z,97112.53
2022-09-30T08:34:30.931Z,97122.21
2022-09-30T08:36:59.663Z,97123.05
2022-09-30T08:39:26.972Z,97122.63
2022-09-30T08:42:08.769Z,97126.16
2022-09-30T08:44:36.579Z,97128.30
2022-09-30T08:47:07.406Z,97127.23
2022-09-30T08:49:47.526Z,97123.23
2022-09-30T08:52:30.494Z,97120.06
2022-09-30T08:54:51.990Z,97112.59
2022-09-30T08:57:19.951Z,97108.88
2022-09-30T08:59:59.677Z,97105.72
2022-09-30T09:02:36.391Z,97105.30
2022-09-30T09:05:06.305Z,97095.58
2022-09-30T09:07:37.078Z,97099.11
2022-09-30T09:10:27.482Z,97102.73
2022-09-30T09:13:07.566Z,97103.09
2022-09-30T09:15:59.919Z,97097.74
2022-09-30T09:18:33.939Z,97101.18
2022-09-30T09:21:21.303Z,97110.67
2022-09-30T09:23:49.783Z,97126.01
2022-09-30T09:26:18.119Z,97125.30
2022-09-30T09:29:04.091Z,97120.53
2022-09-30T09:31:31.832Z,97117.78
2022-09-30T09:34:08.819Z,97126.73
2022-09-30T09:36:48.431Z,97131.12
2022-09-30T09:39:22.617Z,97126.67
2022-09-30T09:41:53.790Z,97129.16
2022-09-30T09:44:39.720Z,97127.87
2022-09-30T09:47:15.319Z,97130.42
2022-09-30T09:49:57.940Z,97131.56
2022-09-30T09:52:47.762Z,97126.03
2022-09-30T09:55:17.061Z,97126.56
2022-09-30T09:57:44.713Z,97126.95
2022-09-30T10:00:40.299Z,97125.76
2022-09-30T10:03:15.461Z,97145.53
2022-09-30T10:05:42.881Z,97143.55
2022-09-30T10:08:16.040Z,97152.47
2022-09-30T10:10:52.183Z,97152.46
2022-09-30T10:13:24.870Z,97155.41
2022-09-30T10:15:54.418Z,97148.55
2022-09-30T10:18:28.692Z,97144.42
2022-09-30T10:21:16.403Z,97150.05
2022-09-30T10:23:43.745Z,97150.95
2022-09-30T10:26:24.168Z,97157.84
2022-09-30T10:29:00.450Z,97152.27
2022-09-30T10:31:40.702Z,97144.38
2022-09-30T10:34:20.594Z,97159.91
2022-09-30T10:36:47.760Z,97158.78
2022-09-30T10:39:35.739Z,97156.85
2022-09-30T10:42:22.337Z,97151.52
2022-09-30T10:44:51.023Z,97151.03
2022-09-30T10:47:20.693Z,97155.86
2022-09-30T10:50:04.903Z,97159.77
2022-09-30T10:52:35.975Z,97164.89
2022-09-30T10:55:14.732Z,97158.60
2022-09-30T10:57:39.995Z,97159.38
2022-09-30T11:00:21.377Z,97159.52
2022-09-30T11:03:07.698Z,97154.76
2022-09-30T11:05:43.451Z,97162.27
2022-09-30T11:08:17.448Z,97171.72
2022-09-30T11:11:08.709Z,97163.40
2022-09-30T11:14:09.078Z,97158.40
2022-09-30T11:17:05.706Z,97157.94
2022-09-30T11:19:39.547Z,97147.20
2022-09-30T11:22:41.307Z,97153.77
2022-09-30T11:25:14.842Z,97157.23
2022-09-30T11:27:54.667Z,97151.86
2022-09-30T11:30:25.651Z,97156.67
2022-09-30T11:33:18.406Z,97149.09
2022-09-30T11:36:01.848Z,97147.77
2022-09-30T11:39:00.438Z,97141.60
2022-09-30T11:41:36.462Z,97146.95
2022-09-30T11:44:38.208Z,97155.48
2022-09-30T11:47:21.338Z,97147.17
2022-09-30T11:50:05.817Z,97155.34
2022-09-30T11:52:36.812Z,97157.48
2022-09-30T11:55:12.996Z,97159.33
2022-09-30T11:57:41.029Z,97155.44
2022-09-30T12:00:17.010Z,97149.14
2022-09-30T12:02:58.586Z,97155.77
2022-09-30T12:05:40.551Z,97153.16
2022-09-30T12:08:14.392Z,97160.23
2022-09-30T12:10:55.135Z,97162.80
2022-09-30T12:13:32.088Z,97157.03
2022-09-30T12:16:02.266Z,97161.30
2022-09-30T12:18:39.623Z,97161.91
2022-09-30T12:21:20.217Z,97153.88
2022-09-30T12:24:03.565Z,97154.99
2022-09-30T12:26:31.656Z,97158.43
2022-09-30T12:29:27.764Z,97161.77
2022-09-30T12:32:11.120Z,97163.14
2022-09-30T12:35:17.539Z,97159.00
2022-09-30T12:37:48.532Z,97161.68
2022-09-30T12:40:25.518Z,97151.47
2022-09-30T12:43:03.111Z,97153.38
2022-09-30T12:45:49.250Z,97160.31
2022-09-30T12:48:20.138Z,97167.17
2022-09-30T12:50:53.682Z,97165.20
2022-09-30T12:53:27.423Z,97160.82
2022-09-30T12:56:04.405Z,97168.66
2022-09-30T12:58:35.607Z,97185.02
2022-09-30T13:01:09.837Z,97177.61
2022-09-30T13:03:54.523Z,97184.65
2022-09-30T13:06:22.587Z,97184.65
2022-09-30T13:09:14.218Z,97189.87
2022-09-30T13:11:51.977Z,97194.52
2022-09-30T13:14:26.415Z,97201.94
2022-09-30T13:17:05.386Z,97201.70
2022-09-30T13:19:36.174Z,97206.59
2022-09-30T13:22:24.118Z,97207.95
2022-09-30T13:25:04.358Z,97213.78
2022-09-30T13:27:48.180Z,97208.73
2022-09-30T13:30:19.850Z,97214.53
2022-09-30T13:33:01.740Z,97230.50
2022-09-30T13:35:32.345Z,97259.63
2022-09-30T13:38:20.542Z,97289.02
2022-09-30T13:41:04.138Z,97290.65
2022-09-30T13:43:43.412Z,97262.72
2022-09-30T13:46:37.195Z,97275.02
2022-09-30T13:49:11.655Z,97273.03
2022-09-30T13:51:41.237Z,97272.52
2022-09-30T13:54:32.460Z,97269.03
2022-09-30T13:57:06.361Z,97268.05
2022-09-30T14:00:03.968Z,97276.67
2022-09-30T14:03:06.867Z,97264.56
2022-09-30T14:05:53.285Z,97260.27
2022-09-30T14:08:27.143Z,97265.73
2022-09-30T14:11:00.624Z,97259.28
2022-09-30T14:13:50.943Z,97267.11
2022-09-30T14:16:27.659Z,97268.84
2022-09-30T14:19:10.833Z,97267.89
2022-09-30T14:21:49.730Z,97277.45
2022-09-30T14:24:26.340Z,97274.91
2022-09-30T14:27:21.723Z,97281.73
2022-09-30T14:30:01.903Z,97286.42
2022-09-30T14:32:41.683Z,97291.70
2022-09-30T14:35:11.644Z,97295.58
2022-09-30T14:37:48.810Z,97297.34
2022-09-30T14:40:19.854Z,97302.41
2022-09-30T14:42:48.024Z,97296.16
2022-09-30T14:45:27.250Z,97299.44
2022-09-30T14:47:58.689Z,97310.94
2022-09-30T14:50:30.646Z,97308.40
2022-09-30T14:52:59.668Z,97315.03
2022-09-30T14:55:30.415Z,97313.52
2022-09-30T14:58:21.346Z,97313.53
2022-09-30T15:01:05.538Z,97314.31
2022-09-30T15:03:38.988Z,97319.77
2022-09-30T15:06:24.459Z,97320.73
2022-09-30T15:09:00.574Z,97317.42
2022-09-30T15:11:39.930Z,97321.73
2022-09-30T15:14:15.405Z,97319.77
2022-09-30T15:16:49.430Z,97307.27
2022-09-30T15:19:34.745Z,97316.45
2022-09-30T15:22:05.882Z,97317.77
2022-09-30T15:24:43.695Z,97323.39
2022-09-30T15:27:28.358Z,97322.97
2022-09-30T15:30:01.808Z,97320.03
2022-09-30T15:32:32.297Z,97324.10
2022-09-30T15:35:18.894Z,97323.89
2022-09-30T15:37:46.560Z,97327.36
2022-09-30T15:40:34.503Z,97323.80
2022-09-30T15:43:06.999Z,97328.03
2022-09-30T15:45:36.597Z,97326.98
2022-09-30T15:48:07.243Z,97339.94
2022-09-30T15:50:38.073Z,97341.45
2022-09-30T15:53:22.648Z,97342.94
2022-09-30T15:55:48.587Z,97348.70
2022-09-30T15:58:36.625Z,97348.84
2022-09-30T16:01:21.803Z,97352.27
2022-09-30T16:03:57.622Z,97361.13
2022-09-30T16:06:51.253Z,97362.78
2022-09-30T16:09:21.877Z,97360.73
2022-09-30T16:11:59.139Z,97366.63
2022-09-30T16:14:29.110Z,97369.47
2022-09-30T16:16:59.195Z,97367.03
2022-09-30T16:19:29.704Z,97362.64
2022-09-30T16:21:57.366Z,97373.59
2022-09-30T16:24:28.397Z,97375.61
2022-09-30T16:27:02.606Z,97368.88
2022-09-30T16:29:30.137Z,97370.11
2022-09-30T16:31:58.071Z,97380.49
2022-09-30T16:34:28.626Z,97387.39
2022-09-30T16:37:11.436Z,97393.70
2022-09-30T16:39:39.435Z,97390.69
2022-09-30T16:42:08.790Z,97401.77
2022-09-30T16:44:37.200Z,97393.89
2022-09-30T16:47:04.644Z,97395.88
2022-09-30T16:49:34.127Z,97397.90
2022-09-30T16:52:01.865Z,97403.80
2022-09-30T16:54:29.437Z,97406.77
2022-09-30T16:56:58.942Z,97405.27
2022-09-30T16:59:27.204Z,97405.52
2022-09-30T17:01:54.789Z,97402.48
2022-09-30T17:04:22.493Z,97405.27
2022-09-30T17:06:49.631Z,97411.56
2022-09-30T17:09:17.000Z,97407.36
2022-09-30T17:11:44.957Z,97418.73
2022-09-30T17:14:12.538Z,97415.54
2022-09-30T17:16:40.683Z,97418.19
2022-09-30T17:19:08.869Z,97418.89
2022-09-30T17:21:36.256Z,97420.87
2022-09-30T17:24:04.740Z,97430.29
2022-09-30T17:26:32.325Z,97436.56
2022-09-30T17:29:14.566Z,97432.22
2022-09-30T17:31:29.715Z,97442.55
2022-09-30T17:33:57.194Z,97445.56
2022-09-30T17:36:25.171Z,97452.02
2022-09-30T17:38:54.114Z,97461.59
2022-09-30T17:41:40.162Z,97463.92
2022-09-30T17:44:08.912Z,97466.34
2022-09-30T17:46:40.478Z,97470.83
2022-09-30T17:49:08.460Z,97485.98
2022-09-30T17:51:37.222Z,97480.41
2022-09-30T17:54:07.891Z,97480.24
2022-09-30T17:56:38.002Z,97477.03
2022-09-30T17:59:06.484Z,97477.86
2022-09-30T18:01:36.110Z,97480.84
2022-09-30T18:04:03.941Z,97485.03
2022-09-30T18:06:33.551Z,97488.44
2022-09-30T18:09:01.473Z,97488.56
2022-09-30T18:11:33.129Z,97493.19
2022-09-30T18:14:01.503Z,97492.53
2022-09-30T18:16:33.174Z,97497.17
2022-09-30T18:19:02.643Z,97492.69
2022-09-30T18:21:31.911Z,97498.44
2022-09-30T18:24:02.544Z,97494.47
2022-09-30T18:26:33.477Z,97493.47
2022-09-30T18:29:00.490Z,97493.02
2022-09-30T18:31:28.452Z,97497.33
2022-09-30T18:33:56.512Z,97494.17
2022-09-30T18:36:33.079Z,97502.65
2022-09-30T18:39:02.020Z,97498.50
2022-09-30T18:41:32.363Z,97497.93
2022-09-30T18:44:02.037Z,97499.19
2022-09-30T18:46:30.968Z,97490.98
2022-09-30T18:48:58.616Z,97499.67
2022-09-30T18:51:25.794Z,97505.78
2022-09-30T18:53:58.189Z,97501.38
2022-09-30T18:56:29.658Z,97506.16
2022-09-30T18:59:03.361Z,97506.40
2022-09-30T19:01:32.451Z,97508.69
2022-09-30T19:04:04.559Z,97511.51
2022-09-30T19:06:32.449Z,97506.42
2022-09-30T19:09:00.173Z,97503.09
2022-09-30T19:11:29.969Z,97515.59
2022-09-30T19:13:59.748Z,97517.06
2022-09-30T19:16:28.918Z,97516.96
2022-09-30T19:19:01.075Z,97514.16
2022-09-30T19:21:28.705Z,97519.72
2022-09-30T19:23:58.862Z,97518.27
2022-09-30T19:26:27.148Z,97523.01
2022-09-30T19:28:58.060Z,97528.74
2022-09-30T19:31:26.695Z,97529.78
2022-09-30T19:33:56.977Z,97532.60
2022-09-30T19:36:30.376Z,97534.88
2022-09-30T19:39:11.252Z,97535.20
2022-09-30T19:41:32.007Z,97526.99
2022-09-30T19:44:01.548Z,97523.41
2022-09-30T19:46:29.610Z,97530.06
2022-09-30T19:48:57.037Z,97528.97
2022-09-30T19:51:24.672Z,97538.86
2022-09-30T19:54:03.150Z,97542.03
2022-09-30T19:56:22.999Z,97537.44
2022-09-30T19:58:52.991Z,97540.82
2022-09-30T20:01:24.842Z,97539.36
2022-09-30T20:03:54.113Z,97539.26
2022-09-30T20:06:27.134Z,97541.85
2022-09-30T20:08:58.654Z,97539.94
2022-09-30T20:11:28.236Z,97551.49
2022-09-30T20:14:15.297Z,97554.66
2022-09-30T20:16:43.456Z,97558.59
2022-09-30T20:19:11.508Z,97556.35
2022-09-30T20:21:40.926Z,97562.42
2022-09-30T20:24:10.737Z,97562.31
2022-09-30T20:26:38.934Z,97564.91
2022-09-30T20:29:09.714Z,97555.90
2022-09-30T20:31:38.834Z,97555.33
2022-09-30T20:34:11.647Z,97553.86
2022-09-30T20:36:39.996Z,97551.39
2022-09-30T20:39:08.237Z,97557.68
2022-09-30T20:41:39.184Z,97559.27
2022-09-30T20:44:11.272Z,97555.09
2022-09-30T20:46:41.018Z,97553.06
2022-09-30T20:49:09.318Z,97558.69
2022-09-30T20:51:36.825Z,97561.27
2022-09-30T20:54:04.484Z,97565.98
2022-09-30T20:56:44.466Z,97565.52
2022-09-30T20:59:01.792Z,97564.83
2022-09-30T21:01:29.661Z,97567.41
2022-09-30T21:03:57.689Z,97566.98
2022-09-30T21:06:27.233Z,97569.55
2022-09-30T21:08:55.679Z,97568.62
2022-09-30T21:11:23.948Z,97569.06
2022-09-30T21:13:52.203Z,97575.47
2022-09-30T21:16:22.099Z,97576.78
2022-09-30T21:18:50.978Z,97582.62
2022-09-30T21:21:20.891Z,97582.84
2022-09-30T21:23:48.592Z,97586.19
2022-09-30T21:26:17.806Z,97591.45
2022-09-30T21:28:49.370Z,97592.34
2022-09-30T21:31:26.109Z,97600.52
2022-09-30T21:33:56.125Z,97595.81
2022-09-30T21:36:24.628Z,97593.86
2022-09-30T21:38:52.978Z,97593.17
2022-09-30T21:41:20.651Z,97596.77
2022-09-30T21:43:49.174Z,97596.36
2022-09-30T21:46:18.392Z,97596.79
2022-09-30T21:48:46.148Z,97594.19
2022-09-30T21:51:13.643Z,97595.52
2022-09-30T21:53:43.932Z,97604.82
2022-09-30T21:56:11.769Z,97600.95
2022-09-30T21:58:39.629Z,97604.16
2022-09-30T22:01:08.365Z,97600.33
2022-09-30T22:03:39.569Z,97601.28
2022-09-30T22:06:08.681Z,97606.88
2022-09-30T22:08:40.270Z,97605.95
2022-09-30T22:11:10.611Z,97600.98
2022-09-30T22:13:40.252Z,97601.63
2022-09-30T22:16:08.125Z,97609.94
2022-09-30T22:18:35.746Z,97609.46
2022-09-30T22:21:09.047Z,97608.79
2022-09-30T22:23:36.789Z,97609.44
2022-09-30T22:26:16.585Z,97617.03
2022-09-30T22:28:45.590Z,97624.67
2022-09-30T22:31:19.083Z,97618.16
2022-09-30T22:34:07.785Z,97614.42
2022-09-30T22:36:54.519Z,97620.71
2022-09-30T22:39:23.051Z,97618.09
2022-09-30T22:41:55.096Z,97613.36
2022-09-30T22:44:25.160Z,97606.17
2022-09-30T22:46:53.372Z,97618.59
2022-09-30T22:49:21.740Z,97615.34
2022-09-30T22:51:52.949Z,97618.71
2022-09-30T22:54:21.000Z,97622.75
2022-09-30T22:56:51.772Z,97624.63
2022-09-30T22:59:20.201Z,97627.32
2022-09-30T23:01:48.745Z,97622.75
2022-09-30T23:04:16.758Z,97623.28
2022-09-30T23:06:49.674Z,97619.23
2022-09-30T23:09:18.460Z,97617.89
2022-09-30T23:11:47.059Z,97625.44
2022-09-30T23:14:14.476Z,97631.05
2022-09-30T23:16:42.417Z,97632.85
2022-09-30T23:19:10.037Z,97631.05
2022-09-30T23:21:37.837Z,97632.96
2022-09-30T23:24:05.679Z,97631.50
2022-09-30T23:26:34.876Z,97630.41
2022-09-30T23:29:05.373Z,97630.72
2022-09-30T23:31:33.751Z,97628.13
2022-09-30T23:34:03.695Z,97625.97
2022-09-30T23:36:33.298Z,97631.36
2022-09-30T23:39:12.842Z,97632.96
2022-09-30T23:41:40.399Z,97632.48
2022-09-30T23:44:09.658Z,97642.12
2022-09-30T23:46:37.245Z,97635.09
2022-09-30T23:49:04.905Z,97632.06
2022-09-30T23:51:33.758Z,97636.02
2022-09-30T23:54:01.869Z,97635.16
2022-09-30T23:56:29.532Z,97631.79
2022-09-30T23:58:58.410Z,97633.84
